createdAt,value
2023-02-11T00:00:42.747Z,22.52
2023-02-11T00:03:10.060Z,23.30
2023-02-11T00:05:37.211Z,21.42
2023-02-11T00:08:04.273Z,22.60
2023-02-11T00:10:31.206Z,19.65
2023-02-11T00:12:58.087Z,22.05
2023-02-11T00:15:25.134Z,21.05
2023-02-11T00:17:52.058Z,20.80
2023-02-11T00:20:19.278Z,21.17
2023-02-11T00:22:46.221Z,20.90
2023-02-11T00:25:13.161Z,23.42
2023-02-11T00:27:40.145Z,20.13
2023-02-11T00:30:07.688Z,22.05
2023-02-11T00:32:34.717Z,21.33
2023-02-11T00:35:01.738Z,20.30
2023-02-11T00:37:28.948Z,21.42
2023-02-11T00:39:55.981Z,20.35
2023-02-11T00:42:25.924Z,20.70
2023-02-11T00:44:52.970Z,20.08
2023-02-11T00:47:19.931Z,20.75
2023-02-11T00:49:46.996Z,21.10
2023-02-11T00:52:14.196Z,20.35
2023-02-11T00:54:41.278Z,19.75
2023-02-11T00:57:08.203Z,20.88
2023-02-11T00:59:35.271Z,21.13
2023-02-11T01:02:02.251Z,19.50
2023-02-11T01:04:29.405Z,19.58
2023-02-11T01:06:56.368Z,18.50
2023-02-11T01:09:25.668Z,20.38
2023-02-11T01:11:52.634Z,21.00
2023-02-11T01:14:19.512Z,19.80
2023-02-11T01:16:46.510Z,19.77
2023-02-11T01:19:13.607Z,19.45
2023-02-11T01:21:40.585Z,19.58
2023-02-11T01:24:07.664Z,20.17
2023-02-11T01:26:36.223Z,19.92
2023-02-11T01:29:03.809Z,19.77
2023-02-11T01:31:32.025Z,19.27
2023-02-11T01:34:01.289Z,21.00
2023-02-11T01:36:28.275Z,19.75
2023-02-11T01:38:55.130Z,18.70
2023-02-11T01:41:22.679Z,21.15
2023-02-11T01:43:50.721Z,19.45
2023-02-11T01:46:38.216Z,18.33
2023-02-11T01:49:12.860Z,19.42
2023-02-11T01:51:45.461Z,19.88
2023-02-11T01:54:35.399Z,21.20
2023-02-11T01:57:23.095Z,19.90
2023-02-11T02:00:05.254Z,19.55
2023-02-11T02:03:06.114Z,20.65
2023-02-11T02:05:43.001Z,20.15
2023-02-11T02:08:38.565Z,20.27
2023-02-11T02:11:05.659Z,20.13
2023-02-11T02:13:35.196Z,22.05
2023-02-11T02:16:13.710Z,20.50
2023-02-11T02:18:58.686Z,20.67
2023-02-11T02:21:44.422Z,20.33
2023-02-11T02:24:49.093Z,19.83
2023-02-11T02:27:44.588Z,21.15
2023-02-11T02:30:40.156Z,20.73
2023-02-11T02:33:32.370Z,19.85
2023-02-11T02:36:18.312Z,19.25
2023-02-11T02:39:00.991Z,19.45
2023-02-11T02:41:31.401Z,17.63
2023-02-11T02:43:58.686Z,19.52
2023-02-11T02:46:31.935Z,20.17
2023-02-11T02:48:59.636Z,21.38
2023-02-11T02:51:45.708Z,19.95
2023-02-11T02:54:30.082Z,19.55
2023-02-11T02:57:21.975Z,19.83
2023-02-11T03:00:13.133Z,18.83
2023-02-11T03:02:51.280Z,18.98
2023-02-11T03:05:45.371Z,19.85
2023-02-11T03:08:35.405Z,22.10
2023-02-11T03:11:30.195Z,20.45
2023-02-11T03:13:57.580Z,20.48
2023-02-11T03:16:27.919Z,20.85
2023-02-11T03:19:04.541Z,22.17
2023-02-11T03:21:33.825Z,21.80
2023-02-11T03:24:08.577Z,22.73
2023-02-11T03:26:43.792Z,20.70
2023-02-11T03:29:16.150Z,21.52
2023-02-11T03:31:49.039Z,23.05
2023-02-11T03:34:23.552Z,21.55
2023-02-11T03:36:56.040Z,23.73
2023-02-11T03:39:33.999Z,22.00
2023-02-11T03:42:03.056Z,22.40
2023-02-11T03:44:37.563Z,21.25
2023-02-11T03:47:08.142Z,22.15
2023-02-11T03:49:37.417Z,22.30
2023-02-11T03:52:06.771Z,21.48
2023-02-11T03:54:35.181Z,21.98
2023-02-11T03:57:02.992Z,22.23
2023-02-11T03:59:29.972Z,22.80
2023-02-11T04:01:59.631Z,22.67
2023-02-11T04:04:26.546Z,22.50
2023-02-11T04:06:53.612Z,20.80
2023-02-11T04:09:20.559Z,20.58
2023-02-11T04:11:47.542Z,22.95
2023-02-11T04:14:14.513Z,22.02
2023-02-11T04:16:41.608Z,22.00
2023-02-11T04:19:08.684Z,22.13
2023-02-11T04:21:35.616Z,21.40
2023-02-11T04:24:02.890Z,22.95
2023-02-11T04:26:29.819Z,21.60
2023-02-11T04:28:56.760Z,22.77
2023-02-11T04:31:24.035Z,24.20
2023-02-11T04:33:51.113Z,22.25
2023-02-11T04:36:18.225Z,21.98
2023-02-11T04:38:45.120Z,21.20
2023-02-11T04:41:12.047Z,22.23
2023-02-11T04:43:38.983Z,23.00
2023-02-11T04:46:06.012Z,23.10
2023-02-11T04:48:34.947Z,22.88
2023-02-11T04:51:02.534Z,22.33
2023-02-11T04:53:29.497Z,22.13
2023-02-11T04:55:56.501Z,23.13
2023-02-11T04:58:24.412Z,22.95
2023-02-11T05:00:51.628Z,22.60
2023-02-11T05:03:18.805Z,22.65
2023-02-11T05:05:45.788Z,22.92
2023-02-11T05:08:13.278Z,24.73
2023-02-11T05:10:40.209Z,23.80
2023-02-11T05:13:07.304Z,24.13
2023-02-11T05:15:34.281Z,22.63
2023-02-11T05:18:01.376Z,22.80
2023-02-11T05:20:28.286Z,22.92
2023-02-11T05:22:55.412Z,22.98
2023-02-11T05:25:22.357Z,23.17
2023-02-11T05:27:49.454Z,25.45
2023-02-11T05:30:16.515Z,23.40
2023-02-11T05:32:43.624Z,23.85
2023-02-11T05:35:10.698Z,24.95
2023-02-11T05:37:37.783Z,24.88
2023-02-11T05:40:05.407Z,25.00
2023-02-11T05:42:32.644Z,24.77
2023-02-11T05:44:59.717Z,23.08
2023-02-11T05:47:26.884Z,25.38
2023-02-11T05:49:54.281Z,26.52
2023-02-11T05:52:22.291Z,24.25
2023-02-11T05:54:49.442Z,26.20
2023-02-11T05:57:16.706Z,23.27
2023-02-11T05:59:43.707Z,24.55
2023-02-11T06:02:10.706Z,25.48
2023-02-11T06:04:37.861Z,26.13
2023-02-11T06:07:05.157Z,25.33
2023-02-11T06:09:32.097Z,25.77
2023-02-11T06:11:58.986Z,24.48
2023-02-11T06:14:25.986Z,24.13
2023-02-11T06:16:52.826Z,25.55
2023-02-11T06:19:19.806Z,23.35
2023-02-11T06:21:46.726Z,24.33
2023-02-11T06:24:13.741Z,25.40
2023-02-11T06:26:40.729Z,25.75
2023-02-11T06:29:07.748Z,27.20
2023-02-11T06:31:37.872Z,26.50
2023-02-11T06:34:05.192Z,24.55
2023-02-11T06:36:32.212Z,24.30
2023-02-11T06:38:59.246Z,25.42
2023-02-11T06:41:26.298Z,25.00
2023-02-11T06:43:53.693Z,23.95
2023-02-11T06:46:21.262Z,25.08
2023-02-11T06:48:48.274Z,24.52
2023-02-11T06:51:16.369Z,24.83
2023-02-11T06:53:47.271Z,24.30
2023-02-11T06:56:17.329Z,25.25
2023-02-11T06:58:44.548Z,24.17
2023-02-11T07:01:14.997Z,24.77
2023-02-11T07:03:44.754Z,25.85
2023-02-11T07:06:17.542Z,26.10
2023-02-11T07:08:46.375Z,26.00
2023-02-11T07:11:15.011Z,23.40
2023-02-11T07:13:42.412Z,23.48
2023-02-11T07:16:15.213Z,24.10
2023-02-11T07:18:43.095Z,24.63
2023-02-11T07:21:12.448Z,23.13
2023-02-11T07:23:40.911Z,21.90
2023-02-11T07:26:13.236Z,22.52
2023-02-11T07:28:41.528Z,22.15
2023-02-11T07:31:18.161Z,21.83
2023-02-11T07:33:48.505Z,19.80
2023-02-11T07:36:16.985Z,19.35
2023-02-11T07:38:44.604Z,21.13
2023-02-11T07:41:15.155Z,22.25
2023-02-11T07:43:42.855Z,28.70
2023-02-11T07:46:16.561Z,25.48
2023-02-11T07:48:43.670Z,23.02
2023-02-11T07:51:23.900Z,22.10
2023-02-11T07:53:51.929Z,23.63
2023-02-11T07:56:20.306Z,24.10
2023-02-11T07:58:47.801Z,22.27
2023-02-11T08:01:22.532Z,21.95
2023-02-11T08:03:49.714Z,22.55
2023-02-11T08:06:18.754Z,21.98
2023-02-11T08:08:45.817Z,20.73
2023-02-11T08:11:15.897Z,20.55
2023-02-11T08:13:43.309Z,23.25
2023-02-11T08:16:17.518Z,22.38
2023-02-11T08:18:44.472Z,22.13
2023-02-11T08:21:11.992Z,20.80
2023-02-11T08:23:40.354Z,21.92
2023-02-11T08:26:10.629Z,22.77
2023-02-11T08:28:39.622Z,20.85
2023-02-11T08:31:11.958Z,22.05
2023-02-11T08:33:41.007Z,20.33
2023-02-11T08:36:29.753Z,20.20
2023-02-11T08:39:16.059Z,22.27
2023-02-11T08:41:46.316Z,21.15
2023-02-11T08:44:13.495Z,20.00
2023-02-11T08:46:40.577Z,21.33
2023-02-11T08:49:07.652Z,19.98
2023-02-11T08:51:34.736Z,20.20
2023-02-11T08:54:02.111Z,20.42
2023-02-11T08:56:31.750Z,22.08
2023-02-11T08:58:58.855Z,21.92
2023-02-11T09:01:28.897Z,21.38
2023-02-11T09:03:57.370Z,21.17
2023-02-11T09:06:26.090Z,20.58
2023-02-11T09:08:55.904Z,20.05
2023-02-11T09:11:27.655Z,21.83
2023-02-11T09:13:54.893Z,19.58
2023-02-11T09:16:28.105Z,20.15
2023-02-11T09:18:58.362Z,20.20
2023-02-11T09:21:26.795Z,19.67
2023-02-11T09:23:55.063Z,21.40
2023-02-11T09:26:29.684Z,21.02
2023-02-11T09:28:57.503Z,20.40
2023-02-11T09:31:27.789Z,20.05
2023-02-11T09:33:59.195Z,22.52
2023-02-11T09:36:29.002Z,21.20
2023-02-11T09:38:58.152Z,19.90
2023-02-11T09:41:40.247Z,19.92
2023-02-11T09:44:18.700Z,22.63
2023-02-11T09:46:53.253Z,19.85
2023-02-11T09:49:26.579Z,21.13
2023-02-11T09:52:01.735Z,22.75
2023-02-11T09:54:45.628Z,21.50
2023-02-11T09:57:27.639Z,21.95
2023-02-11T09:59:56.835Z,21.02
2023-02-11T10:02:29.794Z,21.65
2023-02-11T10:05:32.390Z,23.65
2023-02-11T10:08:05.362Z,21.83
2023-02-11T10:10:50.987Z,22.58
2023-02-11T10:13:45.144Z,20.23
2023-02-11T10:16:12.165Z,21.38
2023-02-11T10:18:44.938Z,23.85
2023-02-11T10:21:41.597Z,20.98
2023-02-11T10:24:14.385Z,22.20
2023-02-11T10:26:43.399Z,21.48
2023-02-11T10:29:26.936Z,21.08
2023-02-11T10:31:56.590Z,21.88
2023-02-11T10:34:25.115Z,20.90
2023-02-11T10:36:52.073Z,21.60
2023-02-11T10:39:26.052Z,22.17
2023-02-11T10:42:13.614Z,26.30
2023-02-11T10:44:47.378Z,21.35
2023-02-11T10:47:27.496Z,22.20
2023-02-11T10:49:54.719Z,21.15
2023-02-11T10:52:27.133Z,22.40
2023-02-11T10:55:06.465Z,25.23
2023-02-11T10:57:36.887Z,23.08
2023-02-11T11:00:22.818Z,22.70
2023-02-11T11:02:56.862Z,19.98
2023-02-11T11:06:00.948Z,22.55
2023-02-11T11:08:42.208Z,21.13
2023-02-11T11:11:12.440Z,20.88
2023-02-11T11:13:54.297Z,21.02
2023-02-11T11:16:23.397Z,22.13
2023-02-11T11:18:53.566Z,22.27
2023-02-11T11:21:22.688Z,21.73
2023-02-11T11:24:02.520Z,20.48
2023-02-11T11:26:42.197Z,21.40
2023-02-11T11:29:23.163Z,22.17
2023-02-11T11:31:59.560Z,23.48
2023-02-11T11:34:33.598Z,20.92
2023-02-11T11:37:10.535Z,21.58
2023-02-11T11:39:37.556Z,22.13
2023-02-11T11:42:22.028Z,20.98
2023-02-11T11:45:23.104Z,20.23
2023-02-11T11:47:56.225Z,21.05
2023-02-11T11:50:27.861Z,22.88
2023-02-11T11:53:04.597Z,20.92
2023-02-11T11:55:59.802Z,19.98
2023-02-11T11:58:29.283Z,20.00
2023-02-11T12:01:02.255Z,22.98
2023-02-11T12:03:54.077Z,22.13
2023-02-11T12:06:52.347Z,20.27
2023-02-11T12:09:22.358Z,22.27
2023-02-11T12:12:14.069Z,24.45
2023-02-11T12:14:50.230Z,20.80
2023-02-11T12:17:35.866Z,21.17
2023-02-11T12:20:18.157Z,20.85
2023-02-11T12:22:45.441Z,22.15
2023-02-11T12:25:47.836Z,20.58
2023-02-11T12:28:28.812Z,20.95
2023-02-11T12:31:20.121Z,20.85
2023-02-11T12:34:17.940Z,19.50
2023-02-11T12:36:55.375Z,21.65
2023-02-11T12:39:34.483Z,19.98
2023-02-11T12:42:57.263Z,21.08
2023-02-11T12:45:59.333Z,19.20
2023-02-11T12:48:34.728Z,20.35
2023-02-11T12:51:27.645Z,21.17
2023-02-11T12:54:00.787Z,20.60
2023-02-11T12:56:42.196Z,24.42
2023-02-11T12:59:17.786Z,20.83
2023-02-11T13:01:45.775Z,20.48
2023-02-11T13:04:21.779Z,19.75
2023-02-11T13:09:38.779Z,19.10
2023-02-11T13:12:26.129Z,20.40
2023-02-11T13:14:57.139Z,18.42
2023-02-11T13:17:38.371Z,22.73
2023-02-11T13:20:21.656Z,20.33
2023-02-11T13:23:02.963Z,18.42
2023-02-11T13:25:51.422Z,19.83
2023-02-11T13:28:45.525Z,20.33
2023-02-11T13:31:16.073Z,18.83
2023-02-11T13:33:44.470Z,19.85
2023-02-11T13:36:14.886Z,20.02
2023-02-11T13:38:50.940Z,17.83
2023-02-11T13:41:21.170Z,19.13
2023-02-11T13:44:06.248Z,17.05
2023-02-11T13:46:54.200Z,18.73
2023-02-11T13:49:40.800Z,20.95
2023-02-11T13:52:19.024Z,20.60
2023-02-11T13:54:51.289Z,20.10
2023-02-11T13:57:21.332Z,20.83
2023-02-11T13:59:57.572Z,18.55
2023-02-11T14:02:45.536Z,18.73
2023-02-11T14:05:37.100Z,17.75
2023-02-11T14:08:28.537Z,19.58
2023-02-11T14:10:56.907Z,18.92
2023-02-11T14:13:35.621Z,17.83
2023-02-11T14:16:17.106Z,16.80
2023-02-11T14:18:56.310Z,17.40
2023-02-11T14:24:14.544Z,16.75
2023-02-11T14:26:51.238Z,18.52
2023-02-11T14:29:24.451Z,18.42
2023-02-11T14:32:26.726Z,18.92
2023-02-11T14:34:53.595Z,18.00
2023-02-11T14:37:50.736Z,19.13
2023-02-11T14:41:00.028Z,18.50
2023-02-11T14:43:39.757Z,16.63
2023-02-11T14:46:09.272Z,17.55
2023-02-11T14:48:38.442Z,19.17
2023-02-11T14:51:13.823Z,19.10
2023-02-11T14:53:47.756Z,18.65
2023-02-11T14:56:26.361Z,19.95
2023-02-11T14:58:55.277Z,21.90
2023-02-11T15:01:36.191Z,19.80
2023-02-11T15:04:05.980Z,17.33
2023-02-11T15:06:33.027Z,17.85
2023-02-11T15:09:05.160Z,16.77
2023-02-11T15:11:38.303Z,17.60
2023-02-11T15:14:12.098Z,16.98
2023-02-11T15:16:46.356Z,17.92
2023-02-11T15:19:45.850Z,17.63
2023-02-11T15:22:23.218Z,17.55
2023-02-11T15:25:15.328Z,19.58
2023-02-11T15:27:56.641Z,18.05
2023-02-11T15:30:23.899Z,17.27
2023-02-11T15:32:51.888Z,18.13
2023-02-11T15:35:19.368Z,17.88
2023-02-11T15:37:47.775Z,16.63
2023-02-11T15:40:19.609Z,18.00
2023-02-11T15:42:57.410Z,17.25
2023-02-11T15:45:34.681Z,17.10
2023-02-11T15:48:13.995Z,18.00
2023-02-11T15:50:42.803Z,18.90
2023-02-11T15:53:32.947Z,18.48
2023-02-11T15:56:26.896Z,16.70
2023-02-11T15:58:55.977Z,19.38
2023-02-11T16:01:34.619Z,17.10
2023-02-11T16:04:03.592Z,17.65
2023-02-11T16:06:49.664Z,18.90
2023-02-11T16:09:16.667Z,18.08
2023-02-11T16:11:47.187Z,17.67
2023-02-11T16:14:29.661Z,18.25
2023-02-11T16:17:01.289Z,18.48
2023-02-11T16:19:30.201Z,19.70
2023-02-11T16:21:59.717Z,18.08
2023-02-11T16:24:30.203Z,18.08
2023-02-11T16:27:03.044Z,19.27
2023-02-11T16:29:36.565Z,19.38
2023-02-11T16:32:09.942Z,17.63
2023-02-11T16:34:37.347Z,19.00
2023-02-11T16:37:05.616Z,19.83
2023-02-11T16:39:33.550Z,18.05
2023-02-11T16:42:01.327Z,17.38
2023-02-11T16:44:29.135Z,21.50
2023-02-11T16:46:59.708Z,23.05
2023-02-11T16:49:28.559Z,20.50
2023-02-11T16:52:01.164Z,19.73
2023-02-11T16:54:29.639Z,19.40
2023-02-11T16:56:57.503Z,17.35
2023-02-11T16:59:24.556Z,20.02
2023-02-11T17:01:53.695Z,19.52
2023-02-11T17:04:24.849Z,19.08
2023-02-11T17:06:52.087Z,20.17
2023-02-11T17:09:24.908Z,20.00
2023-02-11T17:11:51.906Z,19.40
2023-02-11T17:14:19.796Z,21.27
2023-02-11T17:16:48.525Z,20.40
2023-02-11T17:19:17.767Z,17.73
2023-02-11T17:21:50.139Z,21.70
2023-02-11T17:24:22.960Z,20.17
2023-02-11T17:26:51.329Z,19.92
2023-02-11T17:29:20.976Z,19.85
2023-02-11T17:31:48.488Z,22.73
2023-02-11T17:34:16.439Z,23.15
2023-02-11T17:36:43.819Z,20.83
2023-02-11T17:39:11.313Z,20.60
2023-02-11T17:41:39.454Z,18.17
2023-02-11T17:44:07.804Z,20.13
2023-02-11T17:46:35.559Z,20.05
2023-02-11T17:49:04.978Z,21.67
2023-02-11T17:51:33.541Z,20.90
2023-02-11T17:54:06.540Z,20.10
2023-02-11T17:56:35.600Z,19.77
2023-02-11T17:59:03.515Z,18.63
2023-02-11T18:01:32.329Z,18.60
2023-02-11T18:04:05.386Z,18.25
2023-02-11T18:06:34.345Z,18.05
2023-02-11T18:09:02.477Z,16.88
2023-02-11T18:11:34.080Z,18.05
2023-02-11T18:14:02.603Z,15.88
2023-02-11T18:16:35.190Z,17.75
2023-02-11T18:19:04.860Z,16.80
2023-02-11T18:21:37.091Z,16.85
2023-02-11T18:24:06.958Z,15.55
2023-02-11T18:26:35.078Z,16.38
2023-02-11T18:29:03.891Z,16.50
2023-02-11T18:31:31.068Z,15.63
2023-02-11T18:33:58.311Z,15.00
2023-02-11T18:36:25.320Z,16.40
2023-02-11T18:38:54.088Z,16.77
2023-02-11T18:41:21.445Z,17.83
2023-02-11T18:43:48.738Z,18.65
2023-02-11T18:46:16.285Z,18.10
2023-02-11T18:48:44.919Z,18.38
2023-02-11T18:51:18.411Z,16.10
2023-02-11T18:53:45.751Z,17.23
2023-02-11T18:56:18.347Z,16.38
2023-02-11T18:58:45.912Z,16.00
2023-02-11T19:01:17.751Z,14.57
2023-02-11T19:03:45.876Z,15.48
2023-02-11T19:06:27.314Z,15.43
2023-02-11T19:09:00.676Z,14.38
2023-02-11T19:11:48.972Z,16.33
2023-02-11T19:14:24.817Z,16.50
2023-02-11T19:16:56.090Z,14.63
2023-02-11T19:19:27.964Z,15.23
2023-02-11T19:21:55.806Z,15.70
2023-02-11T19:24:23.532Z,16.17
2023-02-11T19:26:52.396Z,17.95
2023-02-11T19:29:19.580Z,16.42
2023-02-11T19:31:47.073Z,15.77
2023-02-11T19:34:15.757Z,16.73
2023-02-11T19:36:43.103Z,17.55
2023-02-11T19:39:10.592Z,16.80
2023-02-11T19:41:37.821Z,16.80
2023-02-11T19:44:06.248Z,17.92
2023-02-11T19:46:35.738Z,16.50
2023-02-11T19:49:03.966Z,17.45
2023-02-11T19:51:32.831Z,17.77
2023-02-11T19:54:00.766Z,18.38
2023-02-11T19:56:31.040Z,18.73
2023-02-11T19:58:58.544Z,17.85
2023-02-11T20:01:26.233Z,19.60
2023-02-11T20:03:55.382Z,18.17
2023-02-11T20:06:24.949Z,17.58
2023-02-11T20:09:00.324Z,19.17
2023-02-11T20:11:30.517Z,20.45
2023-02-11T20:13:57.965Z,18.83
2023-02-11T20:16:46.300Z,20.45
2023-02-11T20:19:20.337Z,17.75
2023-02-11T20:21:49.153Z,20.52
2023-02-11T20:24:17.625Z,18.58
2023-02-11T20:26:46.559Z,17.83
2023-02-11T20:29:14.470Z,18.35
2023-02-11T20:31:41.978Z,17.42
2023-02-11T20:34:09.929Z,17.77
2023-02-11T20:36:38.736Z,20.88
2023-02-11T20:39:06.645Z,20.02
2023-02-11T20:41:36.154Z,19.85
2023-02-11T20:44:06.377Z,20.17
2023-02-11T20:46:34.550Z,19.05
2023-02-11T20:49:02.307Z,20.42
2023-02-11T20:51:31.776Z,18.80
2023-02-11T20:53:59.424Z,17.75
2023-02-11T20:56:29.429Z,19.38
2023-02-11T20:59:00.605Z,20.15
2023-02-11T21:01:49.454Z,19.73
2023-02-11T21:04:19.392Z,19.25
2023-02-11T21:06:48.856Z,19.73
2023-02-11T21:09:19.841Z,19.67
2023-02-11T21:11:47.741Z,17.88
2023-02-11T21:14:15.525Z,19.05
2023-02-11T21:16:42.599Z,18.05
2023-02-11T21:19:09.694Z,17.95
2023-02-11T21:21:37.662Z,19.42
2023-02-11T21:24:05.922Z,19.02
2023-02-11T21:26:35.397Z,18.08
2023-02-11T21:29:04.022Z,17.25
2023-02-11T21:31:33.348Z,17.75
2023-02-11T21:34:00.761Z,17.05
2023-02-11T21:36:30.099Z,19.65
2023-02-11T21:38:57.420Z,18.85
2023-02-11T21:41:25.012Z,18.27
2023-02-11T21:43:52.459Z,21.40
2023-02-11T21:46:20.713Z,19.77
2023-02-11T21:48:48.175Z,18.20
2023-02-11T21:51:21.853Z,18.23
2023-02-11T21:53:56.888Z,18.92
2023-02-11T21:56:26.429Z,18.90
2023-02-11T21:58:54.849Z,18.35
2023-02-11T22:01:25.012Z,17.38
2023-02-11T22:03:52.192Z,16.98
2023-02-11T22:06:22.949Z,15.82
2023-02-11T22:08:50.498Z,15.68
2023-02-11T22:11:17.987Z,18.63
2023-02-11T22:13:45.801Z,18.88
2023-02-11T22:16:15.178Z,18.48
2023-02-11T22:18:44.624Z,16.95
2023-02-11T22:21:14.777Z,19.23
2023-02-11T22:23:42.225Z,18.98
2023-02-11T22:26:15.073Z,17.33
2023-02-11T22:28:42.750Z,16.90
2023-02-11T22:31:24.539Z,16.60
2023-02-11T22:33:51.783Z,16.75
2023-02-11T22:36:39.470Z,15.65
2023-02-11T22:39:09.545Z,15.02
2023-02-11T22:41:38.403Z,16.05
2023-02-11T22:44:05.514Z,16.92
2023-02-11T22:46:32.612Z,17.65
2023-02-11T22:48:59.547Z,16.17
2023-02-11T22:51:29.375Z,15.85
2023-02-11T22:54:02.542Z,16.80
2023-02-11T22:56:31.263Z,17.88
2023-02-11T22:59:03.572Z,15.68
2023-02-11T23:01:31.459Z,17.58
2023-02-11T23:04:00.425Z,16.95
2023-02-11T23:06:27.482Z,16.45
2023-02-11T23:08:54.948Z,18.73
2023-02-11T23:11:25.651Z,17.83
2023-02-11T23:13:54.161Z,18.38
2023-02-11T23:16:27.030Z,18.60
2023-02-11T23:18:54.419Z,16.75
2023-02-11T23:21:24.929Z,17.40
2023-02-11T23:24:13.125Z,19.13
2023-02-11T23:26:41.793Z,19.52
2023-02-11T23:29:09.700Z,18.02
2023-02-11T23:31:40.021Z,16.10
2023-02-11T23:34:07.966Z,17.92
2023-02-11T23:36:35.060Z,15.80
2023-02-11T23:39:02.328Z,18.50
2023-02-11T23:41:29.320Z,17.05
2023-02-11T23:43:57.954Z,19.33
2023-02-11T23:46:26.430Z,18.48
2023-02-11T23:48:54.011Z,16.80
2023-02-11T23:51:22.132Z,16.42
2023-02-11T23:53:50.430Z,16.83
2023-02-11T23:56:23.314Z,16.23
2023-02-11T23:58:52.292Z,16.02
